Route Details

Aircraft Information
Group: North America Fleet
Types: B738, B752, B762, B763
Route Data
Distance: 582nm
Duration: 2h 14m
Origin METAR: KELP 010451Z 00000KT 10SM SCT240 05/M04 A3007 RMK AO2 SLP165 T00501039
Dest. METAR: KONT 010453Z 03013G19KT 10SM CLR 13/M11 A3008 RMK AO2 PK WND 04031/0409 SLP186 T01331111
Freight Data
(for Feb 1, 2023)
Load Factor:
64%
Manifested Cargo: 41,472lbs
Financial History
Total Freight: 102,725lbs
Average Load: 0lbs/flt
Fuel Used: 27,686lbs
Avg. Fuel Used: 0lbs/flt
Fuel Expense: $15,381
Avg. Fuel Expense: $0
Avg. Fuel Cost: $0/lbs
Total Gross Income: $261,949
Pilot Pay: $438
Total Expenses: $53,269
Total Revenue: $191,982
Average Revenue: $0

Capitol Logistics 427




KELP
El Paso International Airport
El Paso, Texas
KONT
Ontario International Airport
Ontario, California

Activity Log

Date Flight Route Aircraft Duration
01/26/2023 CPX427 DCT FLOGS DCT TFD J169 KOFFA DCT PHRED SCBBY2 B738 2h 04m
07/17/2022 CPX427 ATKNN5 FLOGS TFD J169 KOFFA PHRED SCBBY2 B763 1h 25m